Time;durP1;ratioP1;P1;durP2;ratioP2;P2;SDS_P1;SDS_P2;PMS_P1;PMS_P2;Temp;Humidity;BMP_temperature;BMP_pressure;BME280_temperature;BME280_humidity;BME280_pressure;Samples;Min_cycle;Max_cycle;Signal;HPM_P1;HPM_P2
2022/06/27 00:01:14;;;;;;;278.63;260.73;;;17.00;76.10;;;;;;5002742;28;20402;-67
2022/06/27 00:03:40;;;;;;;194.23;182.83;;;17.00;76.10;;;;;;5006601;28;20519;-67
2022/06/27 00:06:06;;;;;;;301.90;281.97;;;17.00;76.20;;;;;;5005893;28;20038;-67
2022/06/27 00:08:31;;;;;;;176.43;165.07;;;17.00;76.30;;;;;;5004773;28;20050;-67
2022/06/27 00:10:57;;;;;;;388.17;360.77;;;17.00;76.40;;;;;;5005528;28;20046;-67
2022/06/27 00:13:23;;;;;;;405.87;377.23;;;17.00;76.40;;;;;;5005224;28;20038;-66
2022/06/27 00:15:48;;;;;;;427.67;397.80;;;17.00;76.40;;;;;;4980439;28;20491;-66
2022/06/27 00:18:14;;;;;;;445.53;415.13;;;17.00;76.70;;;;;;5000160;28;20484;-66
2022/06/27 00:20:40;;;;;;;294.90;276.13;;;17.00;76.70;;;;;;5004658;28;20034;-66
2022/06/27 00:23:05;;;;;;;277.83;261.17;;;17.00;77.10;;;;;;5003982;28;20069;-66
2022/06/27 00:25:31;;;;;;;322.30;302.27;;;17.00;77.40;;;;;;5004516;28;20045;-66
2022/06/27 00:27:57;;;;;;;411.77;385.60;;;16.90;78.00;;;;;;5005471;28;20092;-66
2022/06/27 00:30:23;;;;;;;403.47;374.87;;;16.90;78.00;;;;;;5006761;28;20045;-66
2022/06/27 00:32:49;;;;;;;433.33;404.10;;;16.80;78.20;;;;;;5006317;28;20038;-66
2022/06/27 00:35:15;;;;;;;454.13;420.80;;;16.80;78.50;;;;;;5005423;28;20411;-66
2022/06/27 00:37:40;;;;;;;491.47;452.10;;;16.70;78.40;;;;;;5006265;28;20610;-66
2022/06/27 00:40:07;;;;;;;457.67;424.83;;;16.70;78.70;;;;;;4989366;28;20287;-66
2022/06/27 00:42:33;;;;;;;326.43;305.40;;;16.60;78.80;;;;;;4986618;28;20041;-66
2022/06/27 00:44:59;;;;;;;497.20;462.03;;;16.50;78.90;;;;;;4981814;28;20285;-66
2022/06/27 00:47:24;;;;;;;438.33;407.33;;;16.50;78.90;;;;;;5005954;28;20299;-66
2022/06/27 00:49:50;;;;;;;377.33;349.77;;;16.40;79.20;;;;;;5004252;28;20435;-66
2022/06/27 00:52:16;;;;;;;221.57;207.77;;;16.40;79.40;;;;;;5005465;28;20048;-66
2022/06/27 00:54:45;;;;;;;93.70;88.53;;;16.40;79.50;;;;;;5018296;28;20058;-66
2022/06/27 00:57:12;;;;;;;81.27;76.50;;;16.40;79.80;;;;;;4988375;28;20038;-66
2022/06/27 00:59:38;;;;;;;228.87;216.47;;;16.40;79.90;;;;;;5003970;28;20277;-66
2022/06/27 01:02:05;;;;;;;243.23;230.17;;;16.40;79.50;;;;;;4983663;28;20292;-66
2022/06/27 01:04:31;;;;;;;210.53;199.23;;;16.40;79.50;;;;;;5002028;28;20296;-66
2022/06/27 01:06:57;;;;;;;156.80;148.30;;;16.50;79.30;;;;;;5005000;28;20295;-66
2022/06/27 01:09:24;;;;;;;103.90;98.17;;;16.50;79.10;;;;;;5019688;28;20789;-66
2022/06/27 01:11:52;;;;;;;92.90;88.00;;;16.50;79.30;;;;;;4983755;28;20472;-66
2022/06/27 01:14:18;;;;;;;73.10;68.93;;;16.60;79.60;;;;;;5002851;28;20374;-66
2022/06/27 01:16:44;;;;;;;156.10;147.80;;;16.60;79.50;;;;;;4988989;28;20920;-67
2022/06/27 01:19:12;;;;;;;109.30;102.67;;;16.60;79.50;;;;;;5001614;28;20688;-67
2022/06/27 01:21:50;;;;;;;129.50;122.47;;;16.70;79.40;;;;;;4979262;28;20044;-67
2022/06/27 01:24:20;;;;;;;152.43;143.93;;;16.70;79.40;;;;;;5004155;28;20308;-67
2022/06/27 01:26:47;;;;;;;135.40;127.77;;;16.70;79.20;;;;;;5005719;28;20346;-67
2022/06/27 01:29:13;;;;;;;166.50;157.33;;;16.70;78.90;;;;;;5005193;28;20555;-67
2022/06/27 01:31:39;;;;;;;126.77;119.67;;;16.80;78.70;;;;;;5005141;28;20289;-67
2022/06/27 01:34:06;;;;;;;106.77;100.57;;;16.80;78.70;;;;;;4986527;28;20296;-67
2022/06/27 01:36:41;;;;;;;129.83;122.50;;;16.80;78.50;;;;;;4976962;28;20462;-67
2022/06/27 01:39:18;;;;;;;79.40;74.38;;;16.80;78.40;;;;;;5002702;28;20288;-67
2022/06/27 01:41:47;;;;;;;102.80;96.97;;;16.90;78.50;;;;;;4993461;28;20034;-67
2022/06/27 01:44:14;;;;;;;140.10;132.30;;;16.90;78.60;;;;;;4997051;28;20776;-67
2022/06/27 01:47:01;;;;;;;121.33;114.77;;;16.90;78.70;;;;;;4972650;28;20724;-67
2022/06/27 01:49:32;;;;;;;56.47;53.03;;;16.80;78.60;;;;;;4980359;28;20312;-67
2022/06/27 01:52:01;;;;;;;141.43;133.73;;;16.80;78.40;;;;;;5004869;28;20289;-66
2022/06/27 01:54:27;;;;;;;79.07;74.33;;;16.80;78.40;;;;;;4983707;28;20300;-67
2022/06/27 01:56:54;;;;;;;104.07;98.27;;;16.80;78.20;;;;;;4988470;28;20388;-67
2022/06/27 01:59:28;;;;;;;120.40;113.80;;;16.80;78.00;;;;;;5003321;28;20289;-67
2022/06/27 02:01:55;;;;;;;31.73;29.63;;;16.90;78.20;;;;;;5019511;28;20292;-67
2022/06/27 02:04:21;;;;;;;56.90;53.47;;;16.80;78.10;;;;;;5004888;28;20458;-67
2022/06/27 02:06:47;;;;;;;117.67;111.37;;;16.80;78.40;;;;;;4983716;28;20298;-67
2022/06/27 02:09:15;;;;;;;56.90;53.37;;;16.80;78.40;;;;;;5004203;28;20128;-67
2022/06/27 02:11:43;;;;;;;131.90;124.37;;;16.80;78.90;;;;;;4980209;28;20704;-67
2022/06/27 02:14:09;;;;;;;69.73;65.70;;;16.80;78.90;;;;;;5003527;28;20321;-67
2022/06/27 02:16:34;;;;;;;47.37;44.30;;;16.80;79.30;;;;;;5004157;28;20706;-67
2022/06/27 02:19:00;;;;;;;53.93;50.63;;;16.70;79.50;;;;;;4988427;28;20122;-67
2022/06/27 02:21:29;;;;;;;92.33;87.07;;;16.70;79.40;;;;;;5005338;28;20042;-67
2022/06/27 02:23:56;;;;;;;108.83;102.63;;;16.70;79.50;;;;;;5005833;28;20069;-67
2022/06/27 02:26:25;;;;;;;104.03;98.03;;;16.70;80.10;;;;;;5004934;28;20312;-67
2022/06/27 02:28:52;;;;;;;42.43;39.53;;;16.70;80.00;;;;;;5019217;28;20430;-67
2022/06/27 02:31:19;;;;;;;100.07;94.23;;;16.70;79.90;;;;;;5004764;28;20300;-67
2022/06/27 02:33:46;;;;;;;152.40;143.80;;;16.60;80.40;;;;;;4999971;28;20384;-67
2022/06/27 02:36:15;;;;;;;132.73;125.33;;;16.60;80.30;;;;;;5002720;28;20304;-67
2022/06/27 02:38:43;;;;;;;113.57;107.03;;;16.60;80.50;;;;;;4984873;28;20336;-66
2022/06/27 02:41:19;;;;;;;109.83;103.57;;;16.60;80.40;;;;;;5004278;28;20380;-67
2022/06/27 02:43:49;;;;;;;174.80;165.03;;;16.60;80.50;;;;;;5018297;28;20284;-67
2022/06/27 02:46:15;;;;;;;85.67;80.63;;;16.60;80.20;;;;;;5003487;28;20300;-67
2022/06/27 02:48:47;;;;;;;140.67;133.10;;;16.60;80.40;;;;;;4977407;28;20743;-67
2022/06/27 02:51:15;;;;;;;130.43;123.20;;;16.60;80.00;;;;;;5003631;28;20301;-67
2022/06/27 02:54:02;;;;;;;111.67;105.33;;;16.60;80.10;;;;;;4997273;28;20367;-67
2022/06/27 02:56:31;;;;;;;165.93;156.43;;;16.60;80.20;;;;;;5002146;28;20431;-67
2022/06/27 02:59:05;;;;;;;116.27;109.33;;;16.60;80.10;;;;;;5003746;28;20285;-67
2022/06/27 03:01:32;;;;;;;126.00;118.63;;;16.60;80.10;;;;;;5003591;28;20309;-67
2022/06/27 03:03:59;;;;;;;133.57;126.07;;;16.60;80.10;;;;;;4987273;28;20077;-67
2022/06/27 03:06:25;;;;;;;82.83;77.87;;;16.60;80.00;;;;;;4985729;28;20811;-67
2022/06/27 03:08:51;;;;;;;183.97;173.67;;;16.60;80.10;;;;;;4986051;28;20387;-67
2022/06/27 03:11:20;;;;;;;82.13;77.20;;;16.60;80.20;;;;;;5004045;28;20453;-67
2022/06/27 03:13:47;;;;;;;58.87;55.10;;;16.70;80.30;;;;;;5002359;28;20121;-67
2022/06/27 03:16:14;;;;;;;115.27;108.70;;;16.70;80.30;;;;;;5001819;28;20383;-67
2022/06/27 03:18:40;;;;;;;77.63;72.97;;;16.70;80.60;;;;;;5003150;28;20320;-67
2022/06/27 03:21:06;;;;;;;82.00;77.23;;;16.60;80.50;;;;;;5003823;28;20297;-67
2022/06/27 03:23:32;;;;;;;74.90;70.50;;;16.70;80.40;;;;;;5004467;28;20289;-66
2022/06/27 03:25:58;;;;;;;132.97;125.47;;;16.70;80.50;;;;;;4976009;28;20046;-66
2022/06/27 03:28:25;;;;;;;131.70;123.77;;;16.70;80.80;;;;;;5003067;28;20320;-67
2022/06/27 03:30:51;;;;;;;129.07;121.83;;;16.70;81.10;;;;;;4998590;28;20042;-67
2022/06/27 03:33:16;;;;;;;140.37;132.70;;;16.60;81.30;;;;;;5002653;28;20627;-67
2022/06/27 03:35:42;;;;;;;245.50;231.40;;;16.60;81.20;;;;;;5021988;28;20665;-67
2022/06/27 03:38:12;;;;;;;119.33;112.23;;;16.70;81.10;;;;;;5006866;28;20038;-67
2022/06/27 03:40:38;;;;;;;156.87;147.80;;;16.60;81.00;;;;;;5007226;28;20401;-67
2022/06/27 03:43:04;;;;;;;123.67;116.63;;;16.70;80.90;;;;;;5008037;28;20633;-67
2022/06/27 03:45:30;;;;;;;121.47;114.47;;;16.70;81.00;;;;;;5001999;28;20285;-67
2022/06/27 03:47:59;;;;;;;162.27;152.83;;;16.70;81.00;;;;;;4983646;28;20823;-67
2022/06/27 03:50:25;;;;;;;184.10;173.13;;;16.70;81.20;;;;;;4996966;28;20038;-67
2022/06/27 03:52:52;;;;;;;202.57;190.97;;;16.80;81.20;;;;;;4990641;28;20307;-67
2022/06/27 03:55:19;;;;;;;153.80;145.13;;;16.80;80.90;;;;;;5007091;28;20305;-67
2022/06/27 03:57:53;;;;;;;133.43;125.83;;;16.80;80.80;;;;;;5004351;28;20403;-66
2022/06/27 04:00:22;;;;;;;131.23;123.90;;;16.90;80.80;;;;;;5007788;28;20684;-66
2022/06/27 04:02:48;;;;;;;134.87;127.43;;;16.90;80.70;;;;;;5007146;28;20038;-66
2022/06/27 04:05:15;;;;;;;197.43;186.53;;;16.90;80.80;;;;;;5006449;28;20327;-66
2022/06/27 04:07:41;;;;;;;192.60;181.93;;;17.00;80.90;;;;;;5007506;28;20887;-66
2022/06/27 04:10:08;;;;;;;188.77;178.50;;;17.00;81.00;;;;;;5002621;28;20302;-66
2022/06/27 04:12:34;;;;;;;134.83;127.10;;;17.00;81.00;;;;;;5006324;28;20057;-66
2022/06/27 04:15:00;;;;;;;130.20;123.03;;;17.10;81.10;;;;;;5006934;28;20301;-66
2022/06/27 04:17:25;;;;;;;145.63;137.27;;;17.10;81.00;;;;;;4980937;28;20037;-66
2022/06/27 04:19:51;;;;;;;115.73;108.90;;;17.10;81.10;;;;;;4990689;28;20060;-67
2022/06/27 04:22:17;;;;;;;136.37;128.43;;;17.20;81.10;;;;;;5006931;28;20544;-67
2022/06/27 04:24:42;;;;;;;55.03;51.40;;;17.20;81.30;;;;;;5005568;28;20037;-67
2022/06/27 04:27:08;;;;;;;49.40;46.40;;;17.20;81.00;;;;;;5002136;28;20193;-66
2022/06/27 04:29:34;;;;;;;69.50;65.10;;;17.30;81.10;;;;;;5000544;28;20665;-67
2022/06/27 04:32:00;;;;;;;170.20;160.23;;;17.30;81.00;;;;;;5022939;28;20180;-67
2022/06/27 04:34:26;;;;;;;41.13;38.07;;;17.30;80.80;;;;;;5005870;28;20124;-67
2022/06/27 04:36:52;;;;;;;127.23;119.70;;;17.40;81.00;;;;;;5004569;28;20088;-67
2022/06/27 04:39:19;;;;;;;83.47;78.43;;;17.40;81.00;;;;;;5005861;28;20648;-67
2022/06/27 04:41:46;;;;;;;124.07;116.60;;;17.50;81.10;;;;;;5002393;28;20402;-67
2022/06/27 04:44:12;;;;;;;50.67;47.53;;;17.60;81.40;;;;;;5006281;28;20285;-67
2022/06/27 04:46:41;;;;;;;122.17;115.53;;;17.70;81.00;;;;;;5005861;28;20347;-67
2022/06/27 04:49:08;;;;;;;50.57;47.50;;;17.70;80.70;;;;;;5005457;28;20038;-67
2022/06/27 04:51:35;;;;;;;189.27;178.87;;;17.80;80.30;;;;;;4998727;28;20292;-67
2022/06/27 04:54:01;;;;;;;172.73;162.87;;;17.90;80.10;;;;;;5006015;28;20931;-67
2022/06/27 04:56:28;;;;;;;176.93;167.20;;;17.90;79.70;;;;;;5005466;28;20736;-67
2022/06/27 04:58:54;;;;;;;153.23;144.83;;;18.00;79.50;;;;;;5020740;28;20407;-67
2022/06/27 05:01:20;;;;;;;131.90;124.67;;;18.00;79.40;;;;;;5006288;28;20411;-67
2022/06/27 05:03:46;;;;;;;111.90;105.77;;;18.10;79.00;;;;;;4990105;28;20036;-67
2022/06/27 05:06:11;;;;;;;121.23;114.37;;;18.20;78.80;;;;;;5001948;28;20050;-67
2022/06/27 05:08:37;;;;;;;128.77;121.83;;;18.50;78.60;;;;;;5001936;28;20048;-67
2022/06/27 05:11:04;;;;;;;146.80;138.57;;;19.10;77.80;;;;;;5004528;28;20042;-67
2022/06/27 05:13:31;;;;;;;222.13;209.60;;;19.60;75.10;;;;;;4987772;28;20069;-67
2022/06/27 05:15:57;;;;;;;168.70;159.13;;;19.60;73.90;;;;;;5004850;28;20315;-67
2022/06/27 05:18:23;;;;;;;170.60;160.73;;;19.40;73.70;;;;;;5005524;28;20280;-67
2022/06/27 05:20:49;;;;;;;143.90;135.67;;;19.30;73.70;;;;;;5004851;28;20720;-67
2022/06/27 05:23:15;;;;;;;147.77;139.33;;;19.10;74.20;;;;;;4987169;28;20037;-67
2022/06/27 05:25:44;;;;;;;181.20;171.27;;;19.10;74.80;;;;;;5004577;28;20366;-67
2022/06/27 05:28:10;;;;;;;172.07;162.17;;;19.20;74.80;;;;;;5021771;28;20049;-67
2022/06/27 05:30:36;;;;;;;173.50;163.90;;;19.30;74.60;;;;;;5005481;28;20304;-67
2022/06/27 05:33:02;;;;;;;159.43;150.00;;;19.40;74.30;;;;;;4998729;28;20875;-67
2022/06/27 05:35:28;;;;;;;187.00;176.90;;;19.40;74.10;;;;;;5005266;28;20320;-67
2022/06/27 05:37:54;;;;;;;179.00;169.33;;;19.40;74.10;;;;;;5003950;28;20041;-67
2022/06/27 05:40:21;;;;;;;157.97;149.10;;;19.40;74.40;;;;;;5005406;28;20301;-67
2022/06/27 05:42:48;;;;;;;182.10;171.93;;;19.60;74.30;;;;;;4988044;28;20046;-67
2022/06/27 05:45:15;;;;;;;193.10;182.17;;;19.60;73.60;;;;;;5015131;28;20327;-67
2022/06/27 05:47:41;;;;;;;161.03;152.07;;;19.50;73.70;;;;;;5004631;28;20292;-67
2022/06/27 05:50:08;;;;;;;175.80;165.97;;;19.50;74.40;;;;;;5002944;28;20041;-67
2022/06/27 05:52:34;;;;;;;190.43;179.60;;;19.80;74.10;;;;;;5006425;28;20537;-67
2022/06/27 05:55:00;;;;;;;224.57;211.97;;;20.10;73.60;;;;;;4989856;28;20065;-67
2022/06/27 05:57:27;;;;;;;208.80;196.50;;;20.10;72.90;;;;;;4987339;28;20080;-67
2022/06/27 05:59:55;;;;;;;279.13;261.20;;;20.10;72.20;;;;;;4980258;28;20196;-67
2022/06/27 06:02:22;;;;;;;267.63;251.20;;;20.00;71.60;;;;;;5003669;28;20052;-67
2022/06/27 06:04:49;;;;;;;278.57;261.67;;;19.90;71.80;;;;;;5003324;28;20038;-67
2022/06/27 06:07:14;;;;;;;272.93;257.00;;;19.70;72.60;;;;;;4985235;28;20039;-67
2022/06/27 06:09:41;;;;;;;215.17;202.37;;;19.80;72.80;;;;;;4989061;28;20595;-67
2022/06/27 06:12:09;;;;;;;302.00;283.83;;;19.80;73.00;;;;;;4986352;28;20507;-66
2022/06/27 06:14:36;;;;;;;331.97;311.43;;;19.90;72.80;;;;;;4989373;28;20046;-66
2022/06/27 06:17:03;;;;;;;265.70;249.50;;;20.10;72.50;;;;;;5006001;28;20041;-66
2022/06/27 06:19:29;;;;;;;293.37;275.37;;;20.20;72.30;;;;;;5005676;28;20041;-66
2022/06/27 06:21:55;;;;;;;311.00;291.67;;;20.30;72.00;;;;;;4989675;28;20033;-66
2022/06/27 06:24:21;;;;;;;242.30;227.40;;;20.50;71.60;;;;;;5005391;28;20454;-67
2022/06/27 06:26:47;;;;;;;326.70;306.03;;;20.60;70.70;;;;;;5006464;28;20140;-67
2022/06/27 06:29:15;;;;;;;322.77;302.40;;;20.60;70.70;;;;;;5014301;28;20050;-66
2022/06/27 06:31:43;;;;;;;332.77;312.27;;;20.50;70.60;;;;;;5005496;28;20108;-66
2022/06/27 06:34:09;;;;;;;310.83;291.37;;;20.40;71.20;;;;;;5005654;28;20398;-66
2022/06/27 06:36:37;;;;;;;298.43;280.03;;;20.20;71.90;;;;;;5003025;28;20042;-67
2022/06/27 06:39:03;;;;;;;320.53;300.87;;;20.10;72.40;;;;;;5008688;28;20072;-67
2022/06/27 06:41:29;;;;;;;258.87;242.93;;;20.10;72.60;;;;;;4986512;28;20150;-67
2022/06/27 06:43:54;;;;;;;303.83;285.73;;;20.20;72.70;;;;;;5004942;28;20149;-67
2022/06/27 06:46:20;;;;;;;328.60;308.57;;;20.10;72.70;;;;;;4990053;28;20046;-67
2022/06/27 06:48:46;;;;;;;290.80;273.17;;;20.10;72.80;;;;;;5001831;28;20054;-66
2022/06/27 06:51:15;;;;;;;306.17;286.77;;;20.10;73.00;;;;;;5021657;28;20081;-66
2022/06/27 06:53:41;;;;;;;283.47;266.67;;;20.20;72.80;;;;;;5005234;28;20046;-67
2022/06/27 06:56:07;;;;;;;265.23;249.53;;;20.20;72.70;;;;;;5005452;28;20065;-67
2022/06/27 06:58:34;;;;;;;238.37;224.03;;;20.20;72.60;;;;;;5021420;28;20042;-67
2022/06/27 07:01:01;;;;;;;294.23;277.27;;;20.20;72.30;;;;;;5006604;28;20076;-66
2022/06/27 07:03:28;;;;;;;215.83;203.40;;;20.20;72.20;;;;;;4988794;28;20140;-66
2022/06/27 07:05:56;;;;;;;270.70;255.13;;;20.10;72.40;;;;;;5005006;28;20049;-66
2022/06/27 07:08:23;;;;;;;248.87;234.70;;;20.10;72.40;;;;;;5004212;28;20041;-66
2022/06/27 07:10:49;;;;;;;185.93;174.97;;;20.10;72.00;;;;;;4988942;28;20053;-66
2022/06/27 07:13:15;;;;;;;182.40;171.80;;;20.00;71.90;;;;;;5005056;28;20061;-66
2022/06/27 07:15:45;;;;;;;248.10;234.07;;;20.00;72.10;;;;;;4985634;28;20046;-66
2022/06/27 07:18:13;;;;;;;236.63;223.13;;;19.90;71.50;;;;;;5001692;28;20041;-66
2022/06/27 07:20:39;;;;;;;226.60;213.57;;;19.90;71.30;;;;;;5018524;28;20046;-66
2022/06/27 07:23:06;;;;;;;223.57;210.60;;;19.80;71.20;;;;;;5005155;28;20407;-66
2022/06/27 07:25:34;;;;;;;246.17;231.83;;;19.80;71.30;;;;;;5004235;28;20057;-66
2022/06/27 07:28:00;;;;;;;234.30;221.07;;;19.70;71.30;;;;;;5004170;28;20042;-66
2022/06/27 07:30:27;;;;;;;226.37;213.37;;;19.70;71.60;;;;;;4988565;28;20042;-66
2022/06/27 07:32:53;;;;;;;210.07;198.33;;;19.70;71.30;;;;;;4996127;28;20042;-66
2022/06/27 07:35:18;;;;;;;234.73;221.47;;;19.80;71.50;;;;;;5001613;28;20045;-66
2022/06/27 07:37:49;;;;;;;220.20;207.70;;;19.80;71.20;;;;;;5004079;28;20038;-66
2022/06/27 07:40:23;;;;;;;232.60;219.43;;;19.80;71.20;;;;;;5005110;28;20073;-66
2022/06/27 07:42:51;;;;;;;181.13;170.23;;;19.90;71.10;;;;;;5018365;28;20037;-66
2022/06/27 07:45:18;;;;;;;228.20;214.60;;;19.90;71.10;;;;;;5004611;28;20057;-66
2022/06/27 07:47:46;;;;;;;226.03;213.50;;;19.90;70.80;;;;;;4984646;28;20125;-66
2022/06/27 07:50:36;;;;;;;215.50;202.97;;;20.00;70.70;;;;;;4982587;28;20050;-66
2022/06/27 07:53:20;;;;;;;212.53;200.23;;;20.00;70.40;;;;;;5004959;28;20498;-66
2022/06/27 07:55:53;;;;;;;208.83;196.77;;;20.00;70.60;;;;;;4991818;28;20129;-66
2022/06/27 07:58:26;;;;;;;188.30;177.63;;;20.10;70.50;;;;;;4983437;28;20046;-66
2022/06/27 08:00:52;;;;;;;250.53;235.90;;;20.10;70.50;;;;;;5005214;28;20052;-66
2022/06/27 08:06:05;;;;;;;227.93;214.50;;;20.00;70.00;;;;;;4996564;28;20072;-66
2022/06/27 08:08:33;;;;;;;239.20;225.33;;;20.00;70.00;;;;;;5004198;28;20045;-66
2022/06/27 08:10:59;;;;;;;233.07;219.93;;;20.00;70.40;;;;;;5004547;28;20050;-66
2022/06/27 08:13:28;;;;;;;215.83;203.07;;;20.10;70.60;;;;;;4990507;28;20052;-66
2022/06/27 08:15:55;;;;;;;197.40;185.77;;;20.20;70.70;;;;;;5004054;28;20042;-66
2022/06/27 08:18:20;;;;;;;256.93;242.60;;;20.40;70.60;;;;;;5000868;28;20494;-66
2022/06/27 08:20:47;;;;;;;202.03;190.33;;;20.40;70.00;;;;;;5003757;28;20040;-66
2022/06/27 08:23:14;;;;;;;247.60;233.23;;;20.50;70.00;;;;;;5000561;28;20073;-66
2022/06/27 08:25:41;;;;;;;301.40;283.77;;;20.60;69.20;;;;;;5005972;28;20410;-66
2022/06/27 08:28:09;;;;;;;287.17;269.80;;;20.60;68.80;;;;;;5006765;28;20060;-66
2022/06/27 08:30:36;;;;;;;258.47;242.73;;;20.70;68.90;;;;;;5007390;28;20048;-66
2022/06/27 08:33:02;;;;;;;233.20;219.23;;;20.70;68.90;;;;;;5007999;28;20048;-66
2022/06/27 08:35:29;;;;;;;320.53;301.60;;;20.70;68.70;;;;;;5021763;28;20039;-66
2022/06/27 08:37:58;;;;;;;320.17;300.77;;;20.80;68.60;;;;;;5005858;28;20084;-66
2022/06/27 08:40:25;;;;;;;352.87;331.77;;;20.80;68.80;;;;;;4997408;28;20136;-66
2022/06/27 08:42:52;;;;;;;290.47;273.17;;;20.90;68.30;;;;;;4989377;28;20048;-66
2022/06/27 08:45:23;;;;;;;312.57;293.60;;;20.90;67.80;;;;;;5007602;28;20521;-66
2022/06/27 08:47:50;;;;;;;315.67;296.23;;;21.10;68.00;;;;;;5000423;28;20485;-67
2022/06/27 08:50:17;;;;;;;387.53;364.10;;;21.40;68.40;;;;;;5006138;28;20041;-66
2022/06/27 08:52:45;;;;;;;383.73;360.70;;;21.70;67.20;;;;;;4990179;28;20099;-66
2022/06/27 08:55:12;;;;;;;346.33;324.93;;;22.00;66.50;;;;;;5001625;28;20585;-66
2022/06/27 08:57:41;;;;;;;383.40;359.77;;;22.30;64.90;;;;;;5005782;28;20041;-66
2022/06/27 09:00:12;;;;;;;376.53;354.47;;;22.70;64.10;;;;;;4975884;28;20047;-66
2022/06/27 09:02:44;;;;;;;343.87;323.63;;;23.00;62.90;;;;;;5022645;28;20545;-66
2022/06/27 09:05:21;;;;;;;416.53;391.97;;;23.10;61.00;;;;;;4992061;28;20494;-66
2022/06/27 09:07:52;;;;;;;400.57;376.67;;;23.10;59.90;;;;;;5015622;28;20049;-67
2022/06/27 09:10:35;;;;;;;415.20;391.13;;;23.00;61.00;;;;;;4987985;28;20426;-67
2022/06/27 09:13:04;;;;;;;311.13;293.57;;;23.10;59.90;;;;;;5001826;28;20046;-66
2022/06/27 09:15:39;;;;;;;391.53;368.77;;;23.10;60.40;;;;;;5004810;28;20046;-66
2022/06/27 09:18:08;;;;;;;437.47;412.03;;;23.20;60.60;;;;;;4994607;28;20042;-66
2022/06/27 09:20:51;;;;;;;428.70;403.97;;;23.50;60.10;;;;;;5005077;28;20077;-66
2022/06/27 09:23:40;;;;;;;399.50;376.60;;;23.60;58.80;;;;;;4999093;28;20116;-66
2022/06/27 09:26:12;;;;;;;422.00;398.20;;;23.70;58.60;;;;;;4999968;28;20040;-66
2022/06/27 09:28:40;;;;;;;314.47;296.27;;;23.90;59.50;;;;;;5004484;28;20046;-66
2022/06/27 09:31:10;;;;;;;482.33;454.50;;;23.90;59.00;;;;;;4978694;28;20064;-66
2022/06/27 09:33:38;;;;;;;469.40;442.93;;;23.80;58.40;;;;;;4997441;28;20053;-66
2022/06/27 09:36:15;;;;;;;389.30;366.47;;;23.90;58.40;;;;;;4984158;28;20183;-66
2022/06/27 09:38:51;;;;;;;391.80;369.73;;;23.70;58.90;;;;;;5001413;28;20485;-67
2022/06/27 09:41:17;;;;;;;346.83;327.70;;;23.80;57.90;;;;;;5004860;28;20077;-67
2022/06/27 09:43:46;;;;;;;389.10;366.97;;;23.90;57.50;;;;;;5005339;28;20112;-67
2022/06/27 09:46:15;;;;;;;415.20;391.73;;;24.00;57.90;;;;;;5007462;28;20088;-67
2022/06/27 09:48:44;;;;;;;451.60;425.60;;;23.80;57.10;;;;;;5002789;28;20141;-67
2022/06/27 09:51:15;;;;;;;401.40;379.17;;;23.70;57.50;;;;;;4989942;28;20056;-67
2022/06/27 09:53:47;;;;;;;409.07;385.33;;;23.60;57.40;;;;;;4993593;28;20103;-66
2022/06/27 09:56:15;;;;;;;389.77;367.40;;;23.60;58.20;;;;;;5005462;28;20046;-66
2022/06/27 09:58:41;;;;;;;403.93;380.60;;;23.50;57.90;;;;;;4995240;28;20050;-66
2022/06/27 10:01:09;;;;;;;410.43;387.40;;;23.60;58.40;;;;;;4996135;28;20042;-66
2022/06/27 10:03:36;;;;;;;425.57;401.03;;;23.60;57.90;;;;;;5004338;28;20042;-66
2022/06/27 10:06:03;;;;;;;393.30;370.23;;;23.60;56.60;;;;;;5006596;28;20129;-66
2022/06/27 10:08:32;;;;;;;409.37;385.77;;;23.80;57.60;;;;;;4997630;28;20042;-66
2022/06/27 10:11:06;;;;;;;415.40;391.80;;;23.90;56.60;;;;;;4979357;28;20042;-66
2022/06/27 10:13:33;;;;;;;422.20;398.17;;;23.90;56.50;;;;;;5006474;28;20080;-66
2022/06/27 10:16:07;;;;;;;442.67;417.57;;;23.80;56.70;;;;;;5006361;28;20046;-66
2022/06/27 10:18:52;;;;;;;;;;;23.70;56.90;;;;;;5006062;28;20531;-66
2022/06/27 10:21:30;;;;;;;379.07;358.00;;;23.60;57.80;;;;;;5003374;28;19925;-66
2022/06/27 10:24:21;;;;;;;365.53;344.63;;;23.60;57.50;;;;;;5003405;28;20042;-66
2022/06/27 10:26:49;;;;;;;393.40;371.53;;;23.70;56.40;;;;;;4998599;28;20513;-66
2022/06/27 10:29:30;;;;;;;415.00;390.77;;;23.80;57.00;;;;;;5004762;28;20050;-67
2022/06/27 10:31:57;;;;;;;450.13;424.53;;;23.90;55.60;;;;;;5005972;28;20406;-67
2022/06/27 10:34:37;;;;;;;452.07;426.47;;;23.90;55.80;;;;;;4989777;28;20494;-67
2022/06/27 10:37:24;;;;;;;425.17;401.07;;;23.80;55.10;;;;;;4998902;28;20073;-67
2022/06/27 10:40:18;;;;;;;441.50;416.30;;;23.80;55.60;;;;;;5005824;28;20053;-67
2022/06/27 10:42:44;;;;;;;403.13;379.73;;;23.90;55.40;;;;;;5005138;28;20129;-67
2022/06/27 10:45:28;;;;;;;463.03;438.10;;;24.00;55.70;;;;;;5005536;28;20128;-67
2022/06/27 10:47:55;;;;;;;341.63;322.77;;;24.00;54.00;;;;;;5004785;28;20054;-67
2022/06/27 10:50:23;;;;;;;434.40;409.93;;;24.00;53.90;;;;;;5004927;28;20288;-67
2022/06/27 10:52:49;;;;;;;413.87;391.17;;;23.90;54.80;;;;;;4986858;28;20046;-67
2022/06/27 10:55:22;;;;;;;510.53;481.23;;;23.80;55.20;;;;;;5004372;28;20042;-67
2022/06/27 10:57:50;;;;;;;393.03;370.27;;;23.60;54.50;;;;;;5004525;28;20041;-68
2022/06/27 11:00:37;;;;;;;431.63;407.10;;;23.40;56.20;;;;;;5005284;28;20079;-68
2022/06/27 11:03:04;;;;;;;465.03;437.80;;;23.40;55.40;;;;;;5004002;28;20088;-68
2022/06/27 11:05:32;;;;;;;441.13;415.83;;;23.30;56.80;;;;;;4988040;28;20586;-68
2022/06/27 11:07:59;;;;;;;395.80;373.17;;;23.20;56.90;;;;;;5001671;28;20485;-68
2022/06/27 11:10:25;;;;;;;455.73;430.47;;;23.20;57.40;;;;;;5004737;28;20125;-68
2022/06/27 11:12:50;;;;;;;431.63;408.03;;;23.20;57.50;;;;;;5004199;28;20141;-67
2022/06/27 11:15:16;;;;;;;433.50;408.93;;;23.30;56.30;;;;;;5002735;28;20208;-66
2022/06/27 11:17:45;;;;;;;390.17;368.43;;;23.30;57.40;;;;;;5002518;28;20042;-67
2022/06/27 11:20:25;;;;;;;473.90;447.03;;;23.30;57.20;;;;;;5003914;28;20052;-66
2022/06/27 11:22:58;;;;;;;336.50;318.30;;;23.40;56.90;;;;;;5020826;28;20038;-66
2022/06/27 11:25:27;;;;;;;428.30;404.90;;;23.40;56.30;;;;;;5004185;28;20175;-67
2022/06/27 11:27:52;;;;;;;412.03;388.60;;;23.50;57.10;;;;;;4987740;28;20045;-67
2022/06/27 11:33:29;;;;;;;342.40;322.03;;;23.50;55.60;;;;;;5011005;28;20065;-66
2022/06/27 11:35:55;;;;;;;395.00;370.50;;;23.50;56.20;;;;;;4993643;28;20150;-66
2022/06/27 11:38:41;;;;;;;430.43;406.70;;;23.70;57.30;;;;;;4987638;28;20472;-66
2022/06/27 11:41:12;;;;;;;439.47;415.07;;;23.90;54.80;;;;;;5002597;28;20038;-66
2022/06/27 11:43:53;;;;;;;442.40;417.13;;;24.20;55.50;;;;;;5001328;28;20540;-66
2022/06/27 11:46:33;;;;;;;478.20;451.60;;;24.50;54.20;;;;;;5017631;28;20046;-67
2022/06/27 11:49:04;;;;;;;444.53;418.77;;;24.60;52.60;;;;;;5003157;28;20444;-67
2022/06/27 11:51:33;;;;;;;464.13;437.43;;;24.50;53.40;;;;;;5014686;28;20479;-67
2022/06/27 11:54:02;;;;;;;486.60;458.33;;;24.60;53.40;;;;;;4986623;28;20045;-67
2022/06/27 11:56:30;;;;;;;445.27;420.07;;;24.50;53.10;;;;;;5013801;28;20053;-67
2022/06/27 11:58:57;;;;;;;419.00;395.27;;;24.30;54.10;;;;;;4990331;28;20504;-67
2022/06/27 12:01:24;;;;;;;447.07;421.53;;;24.20;54.00;;;;;;4979608;28;20320;-67
2022/06/27 12:04:26;;;;;;;452.67;428.67;;;23.90;54.60;;;;;;5007838;28;20468;-67
2022/06/27 12:06:59;;;;;;;437.43;411.70;;;23.70;53.50;;;;;;4964110;28;20046;-67
2022/06/27 12:09:27;;;;;;;404.40;381.97;;;23.60;54.00;;;;;;5001786;28;20053;-68
2022/06/27 12:12:00;;;;;;;446.10;421.27;;;23.70;53.80;;;;;;5008854;28;20456;-68
2022/06/27 12:14:27;;;;;;;484.17;455.70;;;23.90;53.80;;;;;;5025210;28;20494;-68
2022/06/27 12:16:56;;;;;;;442.63;417.20;;;24.10;53.70;;;;;;5008841;28;20138;-68
2022/06/27 12:19:23;;;;;;;509.67;481.07;;;24.40;53.90;;;;;;5009238;28;20103;-68
2022/06/27 12:21:49;;;;;;;506.23;476.57;;;24.70;53.00;;;;;;5008498;28;20065;-68
2022/06/27 12:24:15;;;;;;;444.03;418.60;;;24.80;52.90;;;;;;5005290;28;20577;-68